Time;durP1;ratioP1;P1;durP2;ratioP2;P2;SDS_P1;SDS_P2;PMS_P1;PMS_P2;Temp;Humidity;BMP_temperature;BMP_pressure;BME280_temperature;BME280_humidity;BME280_pressure;Samples;Min_cycle;Max_cycle;Signal;HPM_P1;HPM_P2
2022/02/18 00:02:24;;;;;;;10.97;3.23;;;;;;;7.80;79.40;98058.56;5113354;28;20224;-68
2022/02/18 00:04:52;;;;;;;11.27;3.30;;;;;;;7.61;80.81;98048.28;5113027;28;20590;-68
2022/02/18 00:07:19;;;;;;;11.53;3.30;;;;;;;7.43;81.54;98037.97;5115878;28;20223;-68
2022/02/18 00:09:45;;;;;;;9.93;3.00;;;;;;;7.28;82.64;98040.66;5115585;28;20252;-68
2022/02/18 00:12:12;;;;;;;10.33;3.17;;;;;;;7.14;83.40;98032.72;5115405;28;20216;-69
2022/02/18 00:14:39;;;;;;;17.33;4.97;;;;;;;7.00;84.11;98032.63;5115015;28;20221;-68
2022/02/18 00:17:05;;;;;;;13.03;3.67;;;;;;;6.93;84.76;98041.78;5114275;28;20210;-68
2022/02/18 00:19:35;;;;;;;11.10;3.37;;;;;;;6.85;85.52;98028.25;5112621;28;20220;-68
2022/02/18 00:22:01;;;;;;;12.03;3.73;;;;;;;6.88;85.72;98025.44;5115498;28;20303;-68
2022/02/18 00:24:27;;;;;;;11.23;3.13;;;;;;;6.78;86.06;98027.75;5115232;28;20218;-68
2022/02/18 00:26:54;;;;;;;13.23;3.27;;;;;;;6.74;86.58;98031.47;5115558;28;20211;-68
2022/02/18 00:29:20;;;;;;;14.63;4.10;;;;;;;6.77;86.29;98036.56;5115196;28;20237;-68
2022/02/18 00:31:47;;;;;;;11.07;3.20;;;;;;;6.77;86.96;98036.56;5115155;28;20233;-68
2022/02/18 00:34:13;;;;;;;12.80;3.53;;;;;;;6.81;87.22;98030.22;5114959;28;20214;-68
2022/02/18 00:36:41;;;;;;;12.77;3.00;;;;;;;6.90;86.51;98011.28;5115223;28;20218;-68
2022/02/18 00:39:07;;;;;;;9.10;3.03;;;;;;;6.93;86.59;98021.63;5114873;28;20226;-68
2022/02/18 00:41:34;;;;;;;12.37;3.33;;;;;;;7.10;85.41;98011.03;5113265;28;20312;-68
2022/02/18 00:44:00;;;;;;;10.70;3.60;;;;;;;7.18;85.14;98016.69;5114753;28;20686;-69
2022/02/18 00:46:29;;;;;;;11.67;3.57;;;;;;;7.23;84.54;98012.00;5114734;28;20213;-68
2022/02/18 00:48:55;;;;;;;16.67;3.87;;;;;;;7.31;84.11;98022.91;5114602;28;20768;-69
2022/02/18 00:51:22;;;;;;;19.13;3.60;;;;;;;7.34;83.74;98031.47;5114939;28;20220;-68
2022/02/18 00:53:50;;;;;;;12.73;3.30;;;;;;;7.41;83.56;98024.91;5114590;28;20215;-68
2022/02/18 00:56:16;;;;;;;12.67;3.73;;;;;;;7.40;83.72;98032.88;5114614;28;20694;-69
2022/02/18 00:58:43;;;;;;;14.33;3.40;;;;;;;7.50;82.87;98034.06;5114687;28;20246;-68
2022/02/18 01:01:09;;;;;;;17.00;3.63;;;;;;;7.51;82.95;98027.84;5113480;28;20206;-69
2022/02/18 01:03:36;;;;;;;13.03;3.30;;;;;;;7.45;83.75;98042.22;5114424;28;20743;-71
2022/02/18 01:06:04;;;;;;;17.57;4.00;;;;;;;7.33;83.28;98050.81;5114420;28;20210;-71
2022/02/18 01:08:31;;;;;;;19.10;4.50;;;;;;;7.27;83.07;98042.41;5112912;28;20603;-69
2022/02/18 01:10:58;;;;;;;12.00;3.17;;;;;;;7.36;81.69;98047.16;5114515;28;20225;-69
2022/02/18 01:13:25;;;;;;;11.47;3.20;;;;;;;7.37;81.40;98033.06;5108747;28;20214;-69
2022/02/18 01:15:51;;;;;;;13.13;3.37;;;;;;;7.40;81.67;98027.63;5114386;28;20207;-69
2022/02/18 01:18:20;;;;;;;12.47;3.40;;;;;;;7.57;80.24;98024.88;5114569;28;20215;-69
2022/02/18 01:20:47;;;;;;;12.33;4.07;;;;;;;7.58;80.56;98022.16;5113987;28;20692;-69
2022/02/18 01:23:13;;;;;;;20.73;3.77;;;;;;;7.60;80.75;98030.78;5114324;28;20215;-69
2022/02/18 01:25:40;;;;;;;11.60;3.30;;;;;;;7.67;80.14;98023.41;5114281;28;20596;-69
2022/02/18 01:28:08;;;;;;;14.93;4.23;;;;;;;7.69;79.64;98019.75;5114394;28;20215;-69
2022/02/18 01:30:37;;;;;;;11.90;3.40;;;;;;;7.74;79.86;98016.81;5113963;28;20244;-69
2022/02/18 01:33:04;;;;;;;17.43;3.73;;;;;;;7.76;79.87;98009.69;5105090;28;20214;-69
2022/02/18 01:35:31;;;;;;;11.80;3.60;;;;;;;7.77;79.65;98014.84;5113902;28;20221;-70
2022/02/18 01:37:57;;;;;;;14.87;3.53;;;;;;;7.76;79.53;98020.19;5114005;28;20221;-70
2022/02/18 01:40:25;;;;;;;18.37;3.90;;;;;;;7.77;79.57;98008.78;5114016;28;20214;-70
2022/02/18 01:42:51;;;;;;;12.53;3.43;;;;;;;7.75;79.79;98003.59;5111666;28;20219;-70
2022/02/18 01:45:19;;;;;;;14.50;3.43;;;;;;;7.79;79.62;98001.63;5114019;28;20221;-70
2022/02/18 01:47:46;;;;;;;12.50;3.57;;;;;;;7.83;78.65;97995.25;5113738;28;20216;-70
2022/02/18 01:50:12;;;;;;;13.90;3.53;;;;;;;7.86;78.98;97998.53;5113817;28;20235;-70
2022/02/18 01:52:42;;;;;;;14.50;2.97;;;;;;;7.88;77.69;97999.28;5113626;28;20610;-70
2022/02/18 01:55:11;;;;;;;13.10;3.50;;;;;;;7.89;78.69;98002.78;5113575;28;20695;-70
2022/02/18 01:57:40;;;;;;;9.77;2.90;;;;;;;7.87;79.12;97997.59;5113590;28;20261;-68
2022/02/18 02:00:08;;;;;;;13.50;3.97;;;;;;;7.88;79.33;97998.41;5111527;28;20213;-68
2022/02/18 02:02:37;;;;;;;6.87;2.67;;;;;;;7.87;79.71;98012.53;5113245;28;20210;-69
2022/02/18 02:05:05;;;;;;;11.70;3.30;;;;;;;7.79;79.88;98004.25;5113536;28;20214;-68
2022/02/18 02:07:32;;;;;;;11.27;3.37;;;;;;;7.82;79.42;98004.06;5113241;28;20211;-68
2022/02/18 02:09:59;;;;;;;12.47;3.00;;;;;;;7.77;80.03;98017.50;5113163;28;20246;-68
2022/02/18 02:12:25;;;;;;;14.67;3.40;;;;;;;7.73;80.08;98000.19;5112673;28;20215;-68
2022/02/18 02:14:52;;;;;;;7.63;2.40;;;;;;;7.86;79.09;97995.03;5113318;28;20215;-69
2022/02/18 02:17:19;;;;;;;14.50;3.50;;;;;;;7.81;78.60;97995.34;5113495;28;20207;-68
2022/02/18 02:19:48;;;;;;;13.37;2.83;;;;;;;7.86;78.43;97984.53;5113501;28;20212;-68
2022/02/18 02:22:15;;;;;;;14.57;3.63;;;;;;;7.81;78.81;97987.44;5113492;28;20271;-68
2022/02/18 02:24:43;;;;;;;12.53;2.80;;;;;;;7.85;79.31;97988.09;5113449;28;20218;-68
2022/02/18 02:27:10;;;;;;;10.53;3.13;;;;;;;7.89;78.50;97982.53;5111441;28;20227;-68
2022/02/18 02:29:37;;;;;;;12.50;2.90;;;;;;;7.88;78.91;97978.22;5113295;28;20253;-69
2022/02/18 02:32:04;;;;;;;19.07;3.63;;;;;;;7.75;79.38;97974.66;5113336;28;20253;-69
2022/02/18 02:34:33;;;;;;;12.80;3.30;;;;;;;7.58;79.18;97972.19;5113034;28;20223;-69
2022/02/18 02:36:59;;;;;;;12.07;3.17;;;;;;;7.48;80.13;97957.88;5113008;28;20222;-69
2022/02/18 02:39:26;;;;;;;7.77;2.80;;;;;;;7.48;80.16;97954.41;5113307;28;20220;-69
2022/02/18 02:41:56;;;;;;;10.70;2.77;;;;;;;7.52;81.02;97953.28;5113235;28;20217;-69
2022/02/18 02:44:23;;;;;;;11.43;3.13;;;;;;;7.49;81.88;97941.19;5110886;28;20214;-69
2022/02/18 02:46:49;;;;;;;9.03;2.77;;;;;;;7.51;82.31;97951.59;5112964;28;20221;-69
2022/02/18 02:49:16;;;;;;;12.83;3.07;;;;;;;7.49;82.30;97959.59;5113220;28;20574;-69
2022/02/18 02:51:42;;;;;;;11.70;2.33;;;;;;;7.50;82.50;97949.91;5111801;28;20576;-69
2022/02/18 02:54:08;;;;;;;5.90;2.43;;;;;;;7.55;82.33;97943.47;5113109;28;20582;-69
2022/02/18 02:56:35;;;;;;;9.70;3.13;;;;;;;7.65;81.58;97949.00;5113292;28;20214;-69
2022/02/18 02:59:03;;;;;;;10.07;2.60;;;;;;;7.72;81.47;97947.69;5112797;28;20208;-69
2022/02/18 03:01:29;;;;;;;7.33;2.70;;;;;;;7.70;82.02;97945.16;5113277;28;20239;-69
2022/02/18 03:03:56;;;;;;;12.10;2.93;;;;;;;7.75;82.69;97944.84;5113242;28;20262;-69
2022/02/18 03:06:22;;;;;;;10.10;2.60;;;;;;;7.72;82.22;97935.38;5113065;28;20215;-69
2022/02/18 03:08:49;;;;;;;10.03;2.57;;;;;;;7.65;82.73;97934.06;5112875;28;20705;-69
2022/02/18 03:11:15;;;;;;;7.43;2.60;;;;;;;7.59;82.19;97931.78;5112877;28;20261;-69
2022/02/18 03:13:43;;;;;;;10.00;2.80;;;;;;;7.51;82.49;97917.41;5113151;28;20244;-69
2022/02/18 03:16:11;;;;;;;8.53;2.50;;;;;;;7.47;82.46;97915.94;5112950;28;20229;-69
2022/02/18 03:18:37;;;;;;;14.00;3.23;;;;;;;7.38;83.16;97913.84;5111337;28;20217;-69
2022/02/18 03:21:04;;;;;;;10.53;3.23;;;;;;;7.26;84.13;97909.31;5112778;28;20248;-69
2022/02/18 03:23:31;;;;;;;11.07;3.43;;;;;;;7.12;84.88;97911.91;5112985;28;20225;-69
2022/02/18 03:25:57;;;;;;;14.17;4.10;;;;;;;7.04;85.19;97908.91;5113699;28;20217;-69
2022/02/18 03:28:24;;;;;;;8.77;3.20;;;;;;;7.04;85.63;97902.78;5116318;28;20214;-69
2022/02/18 03:30:50;;;;;;;11.20;3.33;;;;;;;6.95;86.26;97900.72;5116089;28;20233;-69
2022/02/18 03:33:18;;;;;;;12.50;2.80;;;;;;;6.77;86.36;97899.16;5116127;28;20679;-69
2022/02/18 03:35:45;;;;;;;11.63;2.70;;;;;;;6.68;87.01;97887.41;5116409;28;20210;-69
2022/02/18 03:38:12;;;;;;;10.87;3.00;;;;;;;6.64;88.63;97888.50;5111024;28;20326;-69
2022/02/18 03:40:38;;;;;;;8.33;2.80;;;;;;;6.59;89.07;97880.03;5116306;28;20217;-69
2022/02/18 03:43:05;;;;;;;8.37;2.47;;;;;;;6.57;88.59;97873.16;5115137;28;20222;-69
2022/02/18 03:45:31;;;;;;;13.23;2.83;;;;;;;6.47;88.82;97880.72;5115695;28;20691;-69
2022/02/18 03:47:58;;;;;;;12.97;2.90;;;;;;;6.48;89.04;97877.16;5116213;28;20210;-69
2022/02/18 03:50:25;;;;;;;8.83;2.53;;;;;;;6.43;89.34;97871.34;5116034;28;20259;-69
2022/02/18 03:52:53;;;;;;;7.33;2.90;;;;;;;6.45;89.84;97872.09;5116291;28;20208;-69
2022/02/18 03:55:20;;;;;;;12.20;2.83;;;;;;;6.43;89.60;97875.75;5116308;28;20221;-69
2022/02/18 03:57:46;;;;;;;9.90;3.27;;;;;;;6.37;90.54;97884.81;5116132;28;20211;-69
2022/02/18 04:00:14;;;;;;;11.20;3.10;;;;;;;6.32;90.30;97881.59;5116148;28;20218;-69
2022/02/18 04:02:40;;;;;;;12.00;2.87;;;;;;;6.30;90.56;97880.81;5107873;28;20232;-69
2022/02/18 04:05:07;;;;;;;9.27;2.43;;;;;;;6.37;91.40;97887.44;5116058;28;20211;-69
2022/02/18 04:07:35;;;;;;;10.60;2.50;;;;;;;6.46;90.72;97873.78;5115769;28;20228;-69
2022/02/18 04:10:02;;;;;;;7.83;2.40;;;;;;;6.50;89.98;97864.81;5113864;28;20253;-69
2022/02/18 04:12:28;;;;;;;8.50;2.57;;;;;;;6.49;90.67;97868.38;5116014;28;20214;-69
2022/02/18 04:14:54;;;;;;;11.10;2.50;;;;;;;6.48;91.41;97864.03;5115561;28;20215;-69
2022/02/18 04:17:22;;;;;;;10.07;2.40;;;;;;;6.52;91.27;97873.44;5115338;28;20206;-69
2022/02/18 04:19:48;;;;;;;8.67;3.03;;;;;;;6.65;90.80;97869.16;5115604;28;20303;-69
2022/02/18 04:22:15;;;;;;;9.53;2.53;;;;;;;6.63;90.24;97868.44;5115343;28;20219;-69
2022/02/18 04:24:43;;;;;;;9.97;2.70;;;;;;;6.63;90.70;97863.19;5115578;28;20215;-69
2022/02/18 04:27:09;;;;;;;11.43;4.10;;;;;;;6.64;90.85;97862.22;5115500;28;20225;-69
2022/02/18 04:29:36;;;;;;;7.97;2.73;;;;;;;6.59;92.03;97859.03;5115366;28;20214;-69
2022/02/18 04:32:03;;;;;;;8.07;2.40;;;;;;;6.70;91.02;97846.13;5115331;28;20231;-69
2022/02/18 04:34:29;;;;;;;10.80;2.80;;;;;;;6.75;90.75;97836.19;5115370;28;20261;-69
2022/02/18 04:36:56;;;;;;;9.87;2.50;;;;;;;6.79;91.08;97840.31;5113395;28;20210;-69
2022/02/18 04:39:23;;;;;;;14.13;2.73;;;;;;;6.83;90.62;97836.59;5114831;28;20216;-70
2022/02/18 04:41:51;;;;;;;9.57;2.77;;;;;;;6.94;89.81;97838.56;5115068;28;20218;-70
2022/02/18 04:44:18;;;;;;;9.70;2.87;;;;;;;7.15;88.86;97826.78;5115067;28;20577;-69
2022/02/18 04:46:44;;;;;;;10.10;2.53;;;;;;;7.22;89.01;97833.38;5115184;28;20211;-69
2022/02/18 04:49:11;;;;;;;11.83;2.77;;;;;;;7.38;88.72;97829.69;5114683;28;20688;-71
2022/02/18 04:51:37;;;;;;;8.23;2.30;;;;;;;7.43;87.98;97812.72;5114961;28;20231;-69
2022/02/18 04:54:04;;;;;;;5.83;1.97;;;;;;;7.48;88.12;97804.56;5114689;28;20261;-69
2022/02/18 04:56:30;;;;;;;7.03;2.50;;;;;;;7.53;87.45;97802.47;5114556;28;20696;-69
2022/02/18 04:58:59;;;;;;;9.90;2.43;;;;;;;7.58;86.69;97795.97;5114493;28;20218;-69
2022/02/18 05:01:26;;;;;;;6.63;2.50;;;;;;;7.58;86.76;97792.50;5112761;28;20599;-69
2022/02/18 05:03:53;;;;;;;10.03;2.50;;;;;;;7.62;87.32;97794.00;5114865;28;20215;-69
2022/02/18 05:06:19;;;;;;;9.13;2.53;;;;;;;7.68;87.63;97791.00;5114681;28;20214;-69
2022/02/18 05:08:46;;;;;;;8.13;2.50;;;;;;;7.73;87.51;97804.69;5114377;28;20295;-69
2022/02/18 05:11:13;;;;;;;9.10;2.83;;;;;;;7.72;87.77;97801.22;5114525;28;20609;-69
2022/02/18 05:13:40;;;;;;;6.37;1.90;;;;;;;7.75;87.92;97789.66;5114483;28;20610;-69
2022/02/18 05:16:08;;;;;;;7.43;2.00;;;;;;;7.80;87.35;97792.84;5114591;28;20210;-69
2022/02/18 05:18:36;;;;;;;9.03;2.70;;;;;;;7.83;87.59;97782.16;5114255;28;20213;-69
2022/02/18 05:21:03;;;;;;;10.47;3.17;;;;;;;7.83;87.75;97785.59;5114418;28;20214;-69
2022/02/18 05:23:29;;;;;;;5.47;2.17;;;;;;;7.89;87.26;97776.50;5114576;28;20214;-69
2022/02/18 05:25:56;;;;;;;8.70;2.87;;;;;;;7.97;87.04;97772.41;5114201;28;20208;-69
2022/02/18 05:28:22;;;;;;;7.47;2.60;;;;;;;7.99;86.94;97759.16;5112298;28;20212;-70
2022/02/18 05:30:49;;;;;;;7.27;2.40;;;;;;;8.00;87.15;97761.69;5113994;28;20240;-69
2022/02/18 05:33:17;;;;;;;8.47;2.60;;;;;;;8.02;86.67;97753.72;5114278;28;20220;-69
2022/02/18 05:35:43;;;;;;;8.07;2.30;;;;;;;8.03;87.31;97750.13;5114093;28;20210;-69
2022/02/18 05:38:10;;;;;;;11.50;2.97;;;;;;;8.00;87.45;97739.78;5114611;28;20570;-69
2022/02/18 05:40:36;;;;;;;8.27;2.60;;;;;;;7.97;87.43;97734.72;5114182;28;20211;-69
2022/02/18 05:43:04;;;;;;;11.23;2.87;;;;;;;8.02;87.34;97725.59;5113890;28;20567;-69
2022/02/18 05:45:30;;;;;;;11.37;2.73;;;;;;;8.07;87.69;97717.38;5113899;28;20236;-69
2022/02/18 05:47:56;;;;;;;13.57;2.87;;;;;;;8.16;87.53;97708.88;5113361;28;20214;-69
2022/02/18 05:50:24;;;;;;;8.17;2.40;;;;;;;8.15;87.21;97701.94;5113495;28;20235;-69
2022/02/18 05:52:51;;;;;;;9.50;2.30;;;;;;;8.19;86.70;97696.41;5113353;28;20685;-69
2022/02/18 05:55:17;;;;;;;11.47;2.50;;;;;;;8.17;87.23;97689.50;5112479;28;20217;-69
2022/02/18 05:57:44;;;;;;;12.00;3.37;;;;;;;8.27;86.76;97677.47;5113848;28;20238;-69
2022/02/18 06:00:12;;;;;;;8.20;2.77;;;;;;;8.34;85.83;97681.38;5113799;28;20210;-69
2022/02/18 06:02:39;;;;;;;8.37;2.40;;;;;;;8.35;85.51;97677.78;5113550;28;20213;-69
2022/02/18 06:05:06;;;;;;;9.37;2.57;;;;;;;8.38;85.83;97674.97;5113717;28;20212;-69
2022/02/18 06:07:34;;;;;;;9.40;2.50;;;;;;;8.37;85.94;97665.34;5113641;28;20213;-69
2022/02/18 06:10:01;;;;;;;7.80;2.50;;;;;;;8.40;85.87;97650.19;5113589;28;20242;-69
2022/02/18 06:12:28;;;;;;;6.33;2.20;;;;;;;8.40;85.67;97654.63;5113527;28;20213;-69
2022/02/18 06:14:54;;;;;;;5.20;1.93;;;;;;;8.43;85.77;97651.78;5113598;28;20210;-69
2022/02/18 06:17:21;;;;;;;6.07;2.07;;;;;;;8.46;85.39;97654.22;5113178;28;20213;-70
2022/02/18 06:19:48;;;;;;;9.37;2.73;;;;;;;8.46;85.88;97654.22;5111704;28;20238;-70
2022/02/18 06:22:15;;;;;;;6.77;2.33;;;;;;;8.47;85.36;97651.47;5113405;28;20218;-69
2022/02/18 06:24:43;;;;;;;7.17;2.80;;;;;;;8.52;85.11;97651.16;5113115;28;20222;-69
2022/02/18 06:27:10;;;;;;;10.47;2.63;;;;;;;8.51;84.65;97658.19;5113234;28;20218;-69
2022/02/18 06:29:37;;;;;;;7.30;2.40;;;;;;;8.54;84.08;97636.94;5113580;28;20211;-69
2022/02/18 06:32:07;;;;;;;5.93;2.13;;;;;;;8.55;84.49;97637.75;5110160;28;20657;-69
2022/02/18 06:34:33;;;;;;;6.93;2.10;;;;;;;8.58;84.11;97635.75;5113234;28;20218;-69
2022/02/18 06:37:00;;;;;;;8.50;2.57;;;;;;;8.61;84.27;97632.94;5113297;28;20564;-69
2022/02/18 06:39:26;;;;;;;9.70;3.03;;;;;;;8.65;84.18;97633.56;5113557;28;20614;-69
2022/02/18 06:41:54;;;;;;;8.33;2.37;;;;;;;8.67;84.36;97626.38;5113463;28;20231;-69
2022/02/18 06:44:21;;;;;;;10.27;3.17;;;;;;;8.70;84.47;97628.81;5112920;28;20222;-69
2022/02/18 06:46:47;;;;;;;9.77;2.13;;;;;;;8.74;84.43;97611.81;5111879;28;20219;-68
2022/02/18 06:49:13;;;;;;;9.80;2.63;;;;;;;8.79;84.29;97615.00;5113173;28;20217;-69
2022/02/18 06:51:40;;;;;;;7.07;2.20;;;;;;;8.83;83.37;97600.66;5113069;28;20580;-69
2022/02/18 06:54:06;;;;;;;7.03;2.30;;;;;;;8.83;83.35;97601.50;5113124;28;20215;-69
2022/02/18 06:56:33;;;;;;;7.07;2.60;;;;;;;8.85;83.68;97594.34;5113190;28;20216;-69
2022/02/18 06:59:01;;;;;;;8.03;2.43;;;;;;;8.91;83.32;97593.03;5113229;28;20211;-69
2022/02/18 07:01:27;;;;;;;6.73;2.20;;;;;;;8.93;83.10;97594.63;5117291;28;20214;-69
2022/02/18 07:03:54;;;;;;;9.37;2.70;;;;;;;8.94;83.85;97583.13;5117024;28;20240;-69
2022/02/18 07:06:20;;;;;;;5.67;2.03;;;;;;;9.00;83.74;97592.41;5116993;28;20215;-69
2022/02/18 07:08:46;;;;;;;5.90;2.43;;;;;;;9.02;83.76;97585.22;5116647;28;20244;-69
2022/02/18 07:11:13;;;;;;;6.20;2.37;;;;;;;9.08;83.38;97584.78;5114907;28;20241;-69
2022/02/18 07:13:40;;;;;;;8.13;2.37;;;;;;;9.11;83.36;97577.50;5116965;28;20250;-69
2022/02/18 07:16:08;;;;;;;6.90;2.30;;;;;;;9.13;83.12;97566.84;5116514;28;20207;-69
2022/02/18 07:18:35;;;;;;;9.73;2.40;;;;;;;9.14;82.61;97557.97;5116939;28;20210;-69
2022/02/18 07:21:01;;;;;;;9.97;2.30;;;;;;;9.17;82.80;97561.22;5116716;28;20234;-69
2022/02/18 07:23:28;;;;;;;9.00;2.67;;;;;;;9.18;83.04;97555.00;5116491;28;20249;-69
2022/02/18 07:25:54;;;;;;;10.30;3.33;;;;;;;9.20;83.29;97555.75;5116368;28;20210;-69
2022/02/18 07:28:21;;;;;;;7.70;2.70;;;;;;;9.26;83.13;97557.09;5116396;28;20210;-69
2022/02/18 07:30:47;;;;;;;8.97;2.33;;;;;;;9.28;81.93;97549.91;5116554;28;20233;-69
2022/02/18 07:33:15;;;;;;;11.50;2.80;;;;;;;9.31;81.38;97547.06;5116530;28;20236;-69
2022/02/18 07:35:42;;;;;;;10.17;2.80;;;;;;;9.29;81.79;97549.78;5116446;28;20210;-69
2022/02/18 07:38:08;;;;;;;11.80;3.17;;;;;;;9.31;82.25;97545.25;5113965;28;20210;-69
2022/02/18 07:40:35;;;;;;;6.00;2.23;;;;;;;9.32;81.73;97538.19;5116601;28;20216;-69
2022/02/18 07:43:01;;;;;;;6.93;2.70;;;;;;;9.32;82.06;97525.84;5116288;28;20218;-69
2022/02/18 07:45:28;;;;;;;6.07;2.40;;;;;;;9.36;81.81;97521.19;5116183;28;20220;-68
2022/02/18 07:47:55;;;;;;;6.77;2.40;;;;;;;9.37;82.37;97528.16;5116266;28;20212;-69
2022/02/18 07:50:23;;;;;;;9.43;3.17;;;;;;;9.40;81.81;97520.00;5116176;28;20210;-69
2022/02/18 07:52:49;;;;;;;8.60;2.90;;;;;;;9.45;81.94;97520.50;5116120;28;20207;-70
2022/02/18 07:55:16;;;;;;;8.97;2.60;;;;;;;9.50;81.96;97505.16;5116277;28;20221;-69
2022/02/18 07:57:43;;;;;;;8.63;2.37;;;;;;;9.50;82.50;97502.53;5116026;28;20209;-70
2022/02/18 08:00:10;;;;;;;7.07;1.97;;;;;;;9.53;83.12;97486.47;5116043;28;20227;-69
2022/02/18 08:02:37;;;;;;;8.80;2.00;;;;;;;9.62;83.26;97480.50;5114358;28;20223;-68
2022/02/18 08:05:04;;;;;;;6.60;2.27;;;;;;;9.67;83.40;97473.09;5111775;28;20221;-69
2022/02/18 08:07:32;;;;;;;6.83;2.40;;;;;;;9.72;83.42;97481.50;5114634;28;20228;-69
2022/02/18 08:09:58;;;;;;;6.60;2.33;;;;;;;9.78;83.69;97473.13;5114449;28;20583;-69
2022/02/18 08:12:25;;;;;;;6.03;1.60;;;;;;;9.86;84.20;97481.28;5112854;28;20238;-68
2022/02/18 08:14:51;;;;;;;8.07;2.60;;;;;;;9.99;83.91;97474.97;5101822;28;20214;-72
2022/02/18 08:17:18;;;;;;;5.73;2.40;;;;;;;10.14;83.63;97463.22;5111357;28;20682;-71
2022/02/18 08:19:44;;;;;;;5.10;1.93;;;;;;;10.22;82.30;97465.28;5113441;28;20223;-73
2022/02/18 08:22:12;;;;;;;7.80;2.07;;;;;;;10.28;82.74;97452.41;5114192;28;20680;-73
2022/02/18 08:24:40;;;;;;;6.40;1.90;;;;;;;10.27;82.91;97445.47;5114080;28;20216;-71
2022/02/18 08:27:07;;;;;;;5.50;2.17;;;;;;;10.19;84.24;97450.50;5113257;28;20209;-73
2022/02/18 08:29:33;;;;;;;9.17;2.40;;;;;;;10.27;84.07;97442.81;5114219;28;20216;-72
2022/02/18 08:32:00;;;;;;;4.73;1.37;;;;;;;10.33;84.19;97444.16;5112377;28;20247;-72
2022/02/18 08:34:26;;;;;;;6.73;1.97;;;;;;;10.40;84.42;97442.69;5113251;28;20217;-71
2022/02/18 08:36:53;;;;;;;4.30;1.60;;;;;;;10.45;84.35;97435.25;5114057;28;20220;-73
2022/02/18 08:39:20;;;;;;;4.37;1.70;;;;;;;10.49;84.42;97426.09;5114217;28;20245;-72
2022/02/18 08:41:48;;;;;;;7.27;2.23;;;;;;;10.48;85.01;97424.44;5110915;28;20628;-72
2022/02/18 08:44:15;;;;;;;5.03;1.40;;;;;;;10.44;85.79;97429.13;5113386;28;20211;-70
2022/02/18 08:46:41;;;;;;;4.27;1.80;;;;;;;10.47;86.13;97417.47;5114237;28;20289;-71
2022/02/18 08:49:08;;;;;;;2.70;1.10;;;;;;;10.41;87.67;97408.22;5113238;28;20217;-74
2022/02/18 08:51:35;;;;;;;4.73;1.23;;;;;;;10.50;87.83;97410.13;5113975;28;20239;-70
2022/02/18 08:54:02;;;;;;;5.33;1.40;;;;;;;10.58;88.80;97398.97;5113759;28;20213;-71
2022/02/18 08:56:29;;;;;;;5.00;1.67;;;;;;;10.67;89.01;97398.19;5111595;28;20253;-72
2022/02/18 08:58:58;;;;;;;3.03;1.50;;;;;;;10.90;88.37;97400.66;5113282;28;20269;-70
2022/02/18 09:01:26;;;;;;;4.70;1.50;;;;;;;11.02;87.91;97393.53;5113466;28;20237;-73
2022/02/18 09:03:53;;;;;;;2.27;1.00;;;;;;;11.24;87.70;97388.13;5112464;28;20213;-71
2022/02/18 09:06:19;;;;;;;2.73;1.07;;;;;;;11.36;87.42;97379.16;5113481;28;20305;-74
2022/02/18 09:08:46;;;;;;;3.27;1.20;;;;;;;11.46;87.52;97366.84;5113510;28;20234;-75
2022/02/18 09:11:12;;;;;;;4.80;1.30;;;;;;;11.55;87.34;97366.91;5112279;28;20256;-75
2022/02/18 09:13:39;;;;;;;2.53;0.93;;;;;;;11.59;87.24;97357.78;5108979;28;20214;-75
2022/02/18 09:16:07;;;;;;;3.33;1.23;;;;;;;11.63;87.43;97345.09;5105288;28;20236;-71
2022/02/18 09:18:33;;;;;;;2.80;1.10;;;;;;;11.70;87.26;97354.19;5110410;28;20210;-71
2022/02/18 09:21:01;;;;;;;4.80;1.20;;;;;;;11.67;87.31;97347.34;5108560;28;20217;-71
2022/02/18 09:23:27;;;;;;;1.13;0.80;;;;;;;11.69;87.40;97341.94;5108138;28;20980;-68
2022/02/18 09:25:54;;;;;;;3.07;0.87;;;;;;;11.68;87.50;97340.25;5111127;28;20709;-73
2022/02/18 09:28:21;;;;;;;2.57;1.07;;;;;;;11.75;87.31;97330.81;5111860;28;20217;-72
2022/02/18 09:30:51;;;;;;;4.20;1.20;;;;;;;11.79;87.39;97341.00;5109148;28;20664;-72
2022/02/18 09:33:19;;;;;;;3.03;1.00;;;;;;;11.90;87.24;97337.41;5111592;28;20248;-72
2022/02/18 09:35:46;;;;;;;2.37;1.00;;;;;;;12.00;86.38;97340.97;5111406;28;20220;-71
2022/02/18 09:38:13;;;;;;;1.70;0.90;;;;;;;12.11;86.43;97344.34;5111654;28;20215;-71
2022/02/18 09:40:40;;;;;;;1.73;1.10;;;;;;;12.19;85.62;97330.41;5109363;28;20218;-71
2022/02/18 09:43:07;;;;;;;4.13;1.00;;;;;;;12.25;85.24;97329.88;5111574;28;20226;-71
2022/02/18 09:45:34;;;;;;;3.63;0.90;;;;;;;12.47;84.70;97329.66;5113811;28;20277;-72
2022/02/18 09:48:01;;;;;;;3.23;1.00;;;;;;;12.61;84.00;97326.59;5113663;28;20222;-72
2022/02/18 09:50:30;;;;;;;2.33;0.83;;;;;;;12.69;83.74;97324.09;5112098;28;20210;-71
2022/02/18 09:52:57;;;;;;;3.33;0.87;;;;;;;12.81;82.74;97312.38;5113590;28;20240;-71
2022/02/18 09:55:24;;;;;;;2.30;0.97;;;;;;;12.99;82.66;97311.59;5113373;28;20240;-71
2022/02/18 09:57:53;;;;;;;2.70;0.90;;;;;;;13.13;81.97;97313.78;5113519;28;20208;-71
2022/02/18 10:00:21;;;;;;;3.00;0.93;;;;;;;13.23;81.48;97295.22;5113207;28;20222;-71
2022/02/18 10:02:48;;;;;;;2.13;0.90;;;;;;;13.35;81.10;97292.25;5113254;28;20650;-71
2022/02/18 10:05:16;;;;;;;2.17;0.80;;;;;;;13.41;81.08;97307.63;5113662;28;20213;-71
2022/02/18 10:08:09;;;;;;;3.53;1.10;;;;;;;13.46;81.36;97285.94;5113667;28;20217;-71
2022/02/18 10:10:38;;;;;;;2.37;0.73;;;;;;;13.48;81.42;97282.16;5097417;28;20213;-71
2022/02/18 10:13:05;;;;;;;1.30;0.90;;;;;;;13.51;81.11;97271.25;5110090;28;20733;-72
2022/02/18 10:15:43;;;;;;;2.10;1.00;;;;;;;13.65;79.89;97269.94;5109989;28;20206;-71
2022/02/18 10:18:10;;;;;;;1.50;0.63;;;;;;;13.68;79.37;97272.31;5108351;28;20213;-71
2022/02/18 10:20:42;;;;;;;1.77;0.70;;;;;;;13.86;79.41;97271.38;5111262;28;20283;-71
2022/02/18 10:23:11;;;;;;;1.73;1.00;;;;;;;14.06;78.30;97261.50;5104817;28;20217;-72
2022/02/18 10:25:40;;;;;;;1.77;0.80;;;;;;;14.27;77.46;97270.06;5104457;28;20236;-71
2022/02/18 10:28:10;;;;;;;1.83;1.20;;;;;;;14.57;75.64;97257.28;5110239;28;20215;-72
2022/02/18 10:30:36;;;;;;;2.17;0.80;;;;;;;14.85;74.21;97255.38;5111150;28;20207;-72
2022/02/18 10:33:11;;;;;;;3.67;1.00;;;;;;;15.00;72.75;97245.84;5111459;28;20234;-71
2022/02/18 10:35:39;;;;;;;1.60;0.70;;;;;;;15.02;72.94;97235.91;5114290;28;20237;-73
2022/02/18 10:38:08;;;;;;;1.93;1.37;;;;;;;15.18;72.86;97238.66;5115301;28;20210;-72
2022/02/18 10:40:43;;;;;;;1.60;0.90;;;;;;;15.41;71.77;97237.19;5115185;28;20215;-73
2022/02/18 10:43:11;;;;;;;1.77;0.90;;;;;;;15.59;71.92;97224.63;5112337;28;20222;-72
2022/02/18 10:45:51;;;;;;;2.60;0.87;;;;;;;15.57;72.63;97237.28;5115091;28;20211;-73
2022/02/18 10:48:19;;;;;;;2.90;1.07;;;;;;;15.46;71.01;97229.56;5115139;28;20226;-73
2022/02/18 10:51:03;;;;;;;2.13;0.73;;;;;;;15.56;71.35;97222.28;5114321;28;20245;-73
2022/02/18 10:53:35;;;;;;;3.80;1.00;;;;;;;15.49;71.29;97211.44;5114846;28;20238;-73
2022/02/18 10:56:05;;;;;;;2.40;1.07;;;;;;;15.48;70.92;97206.28;5114752;28;20708;-73
2022/02/18 10:58:33;;;;;;;3.03;1.00;;;;;;;15.42;70.93;97190.94;5113779;28;20215;-72
2022/02/18 11:01:05;;;;;;;2.10;1.10;;;;;;;15.27;70.50;97176.50;5114737;28;20235;-74
2022/02/18 11:03:32;;;;;;;3.40;0.97;;;;;;;15.22;67.95;97176.16;5114191;28;20208;-75
2022/02/18 11:06:11;;;;;;;2.40;0.77;;;;;;;15.34;67.96;97167.75;5113947;28;20228;-74
2022/02/18 11:08:39;;;;;;;2.53;0.83;;;;;;;15.60;67.11;97157.06;5114900;28;20301;-75
2022/02/18 11:11:17;;;;;;;1.63;0.60;;;;;;;15.80;66.62;97140.66;5113028;28;20629;-74
2022/02/18 11:13:44;;;;;;;1.50;0.60;;;;;;;15.95;65.06;97136.34;5098765;28;20341;-77
2022/02/18 11:16:12;;;;;;;3.00;0.80;;;;;;;15.84;65.39;97134.00;5114225;28;20220;-74
2022/02/18 11:18:39;;;;;;;3.33;0.93;;;;;;;15.82;65.79;97137.84;5114601;28;20219;-75
2022/02/18 11:21:06;;;;;;;3.37;1.00;;;;;;;15.65;65.28;97122.78;5113515;28;20264;-76
2022/02/18 11:23:34;;;;;;;2.00;0.70;;;;;;;15.54;66.11;97118.59;5113722;28;20220;-76
2022/02/18 11:26:01;;;;;;;2.67;0.80;;;;;;;15.52;66.45;97111.75;5095877;28;20240;-77
2022/02/18 11:28:29;;;;;;;4.97;0.90;;;;;;;15.60;67.56;97125.09;5107877;28;20216;-75
2022/02/18 11:30:58;;;;;;;1.60;0.93;;;;;;;15.63;67.10;97114.13;5115220;28;20212;-75
2022/02/18 11:33:43;;;;;;;1.77;0.83;;;;;;;15.58;66.44;97100.47;5115115;28;20815;-76
2022/02/18 11:36:35;;;;;;;2.37;0.70;;;;;;;15.49;66.41;97101.41;5115199;28;20215;-76
2022/02/18 11:39:18;;;;;;;0.70;0.60;;;;;;;15.38;68.21;97093.72;5114254;28;20213;-76